Irlam, United Kingdom
Current Conditions -  °F | °C
As of 2:50 AM on Thursday 25 Dec 2014 (Local Time) from EGCC Reporting Station
Scattered Clouds Scattered Clouds  
Wind Chill: 39°   Ceiling: Unl
Heat Index: 43°   Visibility: 6mi
Dew Point: 37°   Wind: 7mph
Humidity: 81%   Direction: 250°WSW
Pressure: 30.21"   Gusts: NA
Location:  53.44°N, 2.42°W
Report Text: EGCC 250250Z 25006KT 9999 SCT021 SCT044 06/03 Q1023 NOSIG
Loading
Personal Weather Stations






























Interactive Weather Map New forecast layout! Learn more

10-Day Weather Forecast

Advertisements
Track Severe Weather on mobile